createdAt,value
2019-04-05T00:01:49.134Z,29.55
2019-04-05T00:04:20.398Z,29.56
2019-04-05T00:06:52.199Z,29.55
2019-04-05T00:09:23.978Z,29.42
2019-04-05T00:11:55.459Z,29.24
2019-04-05T00:14:27.483Z,29.24
2019-04-05T00:16:59.002Z,29.32
2019-04-05T00:19:30.776Z,29.32
2019-04-05T00:22:02.482Z,29.20
2019-04-05T00:24:34.170Z,29.03
2019-04-05T00:27:05.826Z,29.29
2019-04-05T00:29:37.883Z,29.29
2019-04-05T00:32:09.981Z,29.21
2019-04-05T00:34:41.860Z,29.13
2019-04-05T00:37:14.659Z,29.24
2019-04-05T00:39:46.452Z,29.15
2019-04-05T00:42:18.435Z,29.02
2019-04-05T00:44:50.162Z,29.06
2019-04-05T00:47:21.717Z,29.09
2019-04-05T00:49:53.462Z,29.13
2019-04-05T00:52:25.142Z,29.03
2019-04-05T00:54:57.023Z,29.05
2019-04-05T00:57:28.721Z,28.98
2019-04-05T01:00:03.151Z,29.05
2019-04-05T01:02:38.542Z,29.19
2019-04-05T01:05:10.416Z,28.96
2019-04-05T01:07:42.199Z,28.99
2019-04-05T01:10:14.486Z,29.11
2019-04-05T01:12:48.207Z,29.10
2019-04-05T01:15:20.135Z,29.10
2019-04-05T01:17:51.790Z,29.28
2019-04-05T01:20:26.664Z,29.30
2019-04-05T01:23:00.632Z,29.32
2019-04-05T01:32:34.728Z,31.15
2019-04-05T01:35:06.804Z,31.07
2019-04-05T01:37:39.136Z,31.07
2019-04-05T01:40:11.288Z,31.13
2019-04-05T01:42:43.098Z,31.13
2019-04-05T01:45:14.970Z,31.14
2019-04-05T01:47:46.550Z,31.21
2019-04-05T01:50:18.296Z,31.00
2019-04-05T01:52:50.478Z,31.00
2019-04-05T01:55:22.042Z,31.31
2019-04-05T01:57:53.543Z,31.62
2019-04-05T02:00:25.164Z,31.69
2019-04-05T02:02:57.450Z,31.61
2019-04-05T02:05:29.382Z,31.71
2019-04-05T02:08:01.064Z,31.89
2019-04-05T02:10:33.359Z,31.89
2019-04-05T02:13:05.114Z,31.89
2019-04-05T02:15:38.307Z,31.75
2019-04-05T02:18:10.006Z,31.81
2019-04-05T02:20:41.650Z,31.81
2019-04-05T02:23:13.149Z,32.12
2019-04-05T02:25:44.775Z,32.06
2019-04-05T02:28:16.673Z,31.72
2019-04-05T02:30:48.533Z,32.23
2019-04-05T02:33:20.825Z,32.32
2019-04-05T02:35:52.501Z,32.74
2019-04-05T02:38:24.637Z,32.47
2019-04-05T02:40:58.744Z,32.47
2019-04-05T02:43:33.593Z,32.39
2019-04-05T02:46:22.154Z,32.81
2019-04-05T02:48:43.042Z,32.76
2019-04-05T02:51:17.867Z,33.02
2019-04-05T02:53:50.719Z,33.17
2019-04-05T02:56:23.687Z,33.42
2019-04-05T02:58:56.109Z,33.45
2019-04-05T03:01:28.728Z,33.68
2019-04-05T03:04:00.773Z,33.68
2019-04-05T03:06:32.791Z,32.12
2019-04-05T03:09:06.842Z,32.12
2019-04-05T03:11:41.197Z,31.85
2019-04-05T03:14:13.111Z,32.09
2019-04-05T03:16:47.789Z,32.09
2019-04-05T03:19:25.599Z,31.70
2019-04-05T03:22:02.626Z,31.84
2019-04-05T03:24:37.433Z,31.92
2019-04-05T03:27:20.624Z,32.39
2019-04-05T03:29:53.528Z,32.39
2019-04-05T03:32:26.603Z,32.77
2019-04-05T03:34:58.493Z,32.88
2019-04-05T03:37:30.540Z,33.03
2019-04-05T03:40:02.544Z,32.71
2019-04-05T03:42:34.356Z,32.72
2019-04-05T03:45:06.225Z,33.29
2019-04-05T03:47:38.220Z,33.37
2019-04-05T03:50:10.143Z,33.22
2019-04-05T03:52:41.794Z,33.13
2019-04-05T03:55:14.170Z,33.36
2019-04-05T03:57:46.075Z,34.03
2019-04-05T04:00:17.950Z,34.46
2019-04-05T04:02:50.784Z,33.97
2019-04-05T04:05:22.904Z,34.05
2019-04-05T04:07:55.353Z,33.87
2019-04-05T04:10:29.145Z,33.84
2019-04-05T04:13:01.055Z,34.24
2019-04-05T04:15:33.665Z,34.24
2019-04-05T04:18:05.899Z,34.18
2019-04-05T04:20:41.135Z,34.32
2019-04-05T04:23:13.564Z,34.44
2019-04-05T04:25:45.319Z,34.34
2019-04-05T04:28:16.994Z,34.41
2019-04-05T04:30:48.648Z,34.53
2019-04-05T04:33:20.723Z,34.43
2019-04-05T04:35:53.468Z,34.53
2019-04-05T04:38:26.072Z,34.75
2019-04-05T04:40:58.079Z,34.74
2019-04-05T04:43:29.740Z,34.71
2019-04-05T04:46:01.653Z,35.06
2019-04-05T04:48:34.068Z,34.99
2019-04-05T04:51:07.278Z,35.06
2019-04-05T04:53:41.318Z,35.21
2019-04-05T04:56:14.089Z,35.21
2019-04-05T04:58:46.927Z,35.31
2019-04-05T05:01:19.880Z,35.67
2019-04-05T05:03:52.719Z,35.76
2019-04-05T05:06:24.369Z,35.76
2019-04-05T05:08:55.975Z,35.84
2019-04-05T05:11:28.026Z,35.95
2019-04-05T05:13:59.832Z,35.95
2019-04-05T05:16:35.532Z,35.76
2019-04-05T05:19:08.307Z,35.76
2019-04-05T05:21:40.683Z,36.23
2019-04-05T05:24:13.553Z,36.44
2019-04-05T05:26:45.546Z,36.44
2019-04-05T05:29:17.252Z,36.24
2019-04-05T05:31:49.074Z,36.27
2019-04-05T05:34:20.879Z,36.69
2019-04-05T05:36:53.036Z,36.21
2019-04-05T05:39:25.234Z,36.59
2019-04-05T05:41:56.692Z,36.53
2019-04-05T05:44:28.429Z,36.39
2019-04-05T05:46:59.860Z,36.56
2019-04-05T05:49:31.595Z,36.56
2019-04-05T05:52:03.870Z,36.78
2019-04-05T05:54:36.439Z,36.82
2019-04-05T05:57:10.466Z,36.84
2019-04-05T05:59:42.099Z,37.04
2019-04-05T06:02:13.800Z,36.89
2019-04-05T06:04:45.749Z,37.06
2019-04-05T06:07:20.662Z,36.76
2019-04-05T06:09:54.089Z,36.76
2019-04-05T06:12:26.896Z,36.51
2019-04-05T06:14:58.734Z,36.51
2019-04-05T06:17:30.645Z,36.60
2019-04-05T06:20:02.361Z,37.64
2019-04-05T06:22:34.028Z,37.81
2019-04-05T06:25:05.940Z,37.63
2019-04-05T06:27:38.758Z,37.63
2019-04-05T06:30:11.324Z,37.46
2019-04-05T06:32:43.011Z,37.71
2019-04-05T06:35:14.845Z,37.58
2019-04-05T06:37:46.697Z,37.27
2019-04-05T06:40:18.839Z,37.27
2019-04-05T06:42:50.508Z,37.52
2019-04-05T06:45:22.548Z,37.50
2019-04-05T06:47:54.253Z,37.16
2019-04-05T06:50:25.699Z,37.48
2019-04-05T06:52:57.210Z,37.46
2019-04-05T06:55:28.755Z,37.89
2019-04-05T06:58:00.052Z,37.89
2019-04-05T07:00:32.032Z,37.66
2019-04-05T07:03:03.500Z,37.66
2019-04-05T07:05:34.916Z,37.71
2019-04-05T07:08:06.802Z,37.71
2019-04-05T07:10:39.594Z,37.81
2019-04-05T07:13:11.867Z,37.72
2019-04-05T07:15:43.637Z,37.72
2019-04-05T07:18:15.725Z,37.66
2019-04-05T07:20:47.718Z,38.13
2019-04-05T07:23:19.387Z,37.95
2019-04-05T07:25:50.911Z,38.27
2019-04-05T07:28:25.000Z,38.16
2019-04-05T07:30:55.736Z,38.16
2019-04-05T07:33:27.130Z,37.98
2019-04-05T07:35:59.411Z,38.15
2019-04-05T07:38:32.190Z,38.15
2019-04-05T07:41:06.931Z,37.99
2019-04-05T07:43:38.746Z,38.03
2019-04-05T07:46:10.853Z,38.08
2019-04-05T07:48:45.227Z,38.63
2019-04-05T07:51:16.036Z,38.63
2019-04-05T07:53:48.181Z,38.29
2019-04-05T07:56:21.579Z,38.29
2019-04-05T07:58:54.823Z,38.52
2019-04-05T08:01:33.843Z,38.92
2019-04-05T08:04:05.748Z,38.73
2019-04-05T08:06:40.578Z,38.73
2019-04-05T08:09:14.275Z,38.88
2019-04-05T08:11:50.146Z,38.83
2019-04-05T08:14:23.029Z,38.72
2019-04-05T08:16:54.602Z,39.02
2019-04-05T08:19:26.303Z,39.02
2019-04-05T08:21:57.878Z,39.24
2019-04-05T08:24:29.468Z,38.76
2019-04-05T08:27:01.095Z,38.62
2019-04-05T08:29:35.382Z,38.60
2019-04-05T08:32:14.384Z,38.60
2019-04-05T08:34:40.438Z,38.63
2019-04-05T08:37:12.260Z,39.16
2019-04-05T08:39:44.125Z,39.16
2019-04-05T08:42:15.964Z,39.04
2019-04-05T08:44:47.949Z,39.04
2019-04-05T08:47:22.311Z,39.24
2019-04-05T08:49:53.433Z,39.10
2019-04-05T08:52:27.005Z,39.35
2019-04-05T08:54:58.567Z,39.35
2019-04-05T08:57:30.097Z,39.48
2019-04-05T09:00:02.105Z,39.28
2019-04-05T09:02:33.802Z,39.28
2019-04-05T09:05:06.347Z,39.30
2019-04-05T09:07:37.898Z,38.98
2019-04-05T09:10:10.558Z,38.14
2019-04-05T09:12:42.147Z,39.38
2019-04-05T09:15:14.770Z,39.48
2019-04-05T09:17:46.271Z,39.52
2019-04-05T09:20:18.193Z,39.20
2019-04-05T09:22:49.957Z,39.60
2019-04-05T09:25:21.934Z,39.60
2019-04-05T09:27:53.573Z,39.86
2019-04-05T09:30:25.600Z,39.68
2019-04-05T09:32:57.451Z,39.60
2019-04-05T09:35:29.059Z,39.53
2019-04-05T09:38:00.490Z,39.53
2019-04-05T09:40:31.977Z,39.22
2019-04-05T09:43:03.762Z,38.87
2019-04-05T09:45:35.418Z,39.27
2019-04-05T09:48:06.787Z,39.29
2019-04-05T09:50:38.329Z,39.29
2019-04-05T09:53:10.083Z,39.14
2019-04-05T09:55:41.525Z,39.14
2019-04-05T09:58:13.968Z,39.16
2019-04-05T10:00:45.344Z,39.18
2019-04-05T10:03:17.933Z,39.18
2019-04-05T10:05:49.410Z,39.23
2019-04-05T10:08:22.677Z,39.25
2019-04-05T10:10:54.661Z,39.35
2019-04-05T10:13:26.502Z,39.42
2019-04-05T10:15:58.280Z,39.26
2019-04-05T10:18:33.194Z,39.20
2019-04-05T10:21:06.803Z,39.20
2019-04-05T10:23:38.361Z,39.32
2019-04-05T10:26:09.981Z,39.21
2019-04-05T10:28:41.496Z,39.39
2019-04-05T10:31:13.034Z,39.39
2019-04-05T10:33:44.865Z,39.44
2019-04-05T10:36:19.739Z,39.50
2019-04-05T10:38:50.006Z,39.19
2019-04-05T10:41:23.144Z,39.05
2019-04-05T10:43:55.004Z,39.23
2019-04-05T10:46:26.708Z,39.23
2019-04-05T10:48:58.578Z,39.40
2019-04-05T10:51:30.637Z,39.40
2019-04-05T10:54:04.298Z,39.04
2019-04-05T10:56:36.136Z,39.04
2019-04-05T10:59:09.107Z,39.08
2019-04-05T11:01:40.814Z,39.08
2019-04-05T11:04:12.323Z,38.89
2019-04-05T11:06:43.844Z,39.35
2019-04-05T11:09:15.823Z,39.24
2019-04-05T11:11:47.254Z,39.03
2019-04-05T11:14:19.258Z,39.03
2019-04-05T11:16:58.271Z,38.85
2019-04-05T11:19:24.293Z,38.57
2019-04-05T11:21:56.153Z,38.82
2019-04-05T11:24:27.841Z,38.82
2019-04-05T11:26:59.402Z,38.84
2019-04-05T11:29:31.234Z,38.84
2019-04-05T11:32:03.671Z,38.64
2019-04-05T11:34:35.291Z,38.57
2019-04-05T11:37:07.825Z,38.57
2019-04-05T11:39:39.699Z,38.57
2019-04-05T11:42:11.708Z,38.41
2019-04-05T11:44:46.966Z,38.14
2019-04-05T11:47:19.280Z,38.14
2019-04-05T11:49:55.096Z,38.10
2019-04-05T11:52:26.160Z,38.04
2019-04-05T11:54:57.801Z,37.99
2019-04-05T11:57:29.080Z,37.90
2019-04-05T12:00:00.683Z,37.83
2019-04-05T12:02:53.847Z,37.81
2019-04-05T12:05:27.159Z,37.90
2019-04-05T12:08:01.769Z,37.69
2019-04-05T12:10:32.226Z,37.59
2019-04-05T12:13:04.067Z,37.59
2019-04-05T12:15:36.384Z,37.51
2019-04-05T12:18:08.021Z,37.62
2019-04-05T12:20:49.406Z,37.62
2019-04-05T12:23:13.800Z,37.54
2019-04-05T12:25:45.664Z,37.35
2019-04-05T12:28:17.433Z,37.28
2019-04-05T12:30:50.148Z,37.14
2019-04-05T12:33:21.760Z,37.22
2019-04-05T12:35:56.436Z,37.11
2019-04-05T12:38:33.053Z,36.85
2019-04-05T12:41:05.553Z,36.17
2019-04-05T12:43:36.799Z,35.96
2019-04-05T12:46:08.310Z,35.96
2019-04-05T12:48:39.573Z,35.58
2019-04-05T12:51:13.185Z,35.97
2019-04-05T12:53:45.493Z,35.97
2019-04-05T12:56:16.778Z,35.90
2019-04-05T12:58:48.472Z,35.90
2019-04-05T13:01:20.176Z,35.99
2019-04-05T13:03:52.065Z,35.99
2019-04-05T13:06:23.485Z,35.92
2019-04-05T13:08:55.132Z,36.00
2019-04-05T13:11:27.751Z,35.95
2019-04-05T13:13:59.359Z,35.94
2019-04-05T13:16:30.505Z,35.98
2019-04-05T13:19:01.723Z,35.94
2019-04-05T13:21:33.258Z,35.98
2019-04-05T13:24:09.380Z,36.22
2019-04-05T13:26:41.665Z,36.57
2019-04-05T13:29:12.213Z,36.73
2019-04-05T13:31:43.699Z,36.52
2019-04-05T13:34:18.128Z,36.52
2019-04-05T13:36:48.936Z,36.44
2019-04-05T13:39:20.854Z,36.47
2019-04-05T13:41:52.525Z,35.99
2019-04-05T13:44:24.390Z,36.24
2019-04-05T13:46:56.365Z,36.44
2019-04-05T13:49:27.752Z,36.28
2019-04-05T13:51:59.652Z,36.48
2019-04-05T13:54:31.098Z,36.57
2019-04-05T13:57:02.840Z,36.64
2019-04-05T13:59:34.733Z,36.64
2019-04-05T14:02:06.906Z,36.65
2019-04-05T14:04:38.653Z,36.60
2019-04-05T14:07:10.113Z,36.53
2019-04-05T14:09:41.859Z,36.53
2019-04-05T14:12:13.490Z,36.49
2019-04-05T14:14:48.627Z,36.52
2019-04-05T14:17:18.287Z,36.45
2019-04-05T14:19:49.672Z,36.48
2019-04-05T14:22:22.508Z,36.48
2019-04-05T14:24:56.609Z,36.48
2019-04-05T14:27:27.926Z,36.36
2019-04-05T14:30:00.583Z,36.25
2019-04-05T14:32:33.222Z,36.14
2019-04-05T14:35:08.139Z,36.14
2019-04-05T14:37:40.208Z,36.03
2019-04-05T14:40:14.029Z,35.95
2019-04-05T14:42:46.195Z,35.89
2019-04-05T14:45:19.201Z,35.89
2019-04-05T14:47:50.975Z,35.79
2019-04-05T14:50:22.810Z,35.86
2019-04-05T14:52:54.777Z,35.75
2019-04-05T14:55:29.457Z,35.76
2019-04-05T14:58:00.096Z,35.72
2019-04-05T15:00:31.759Z,35.75
2019-04-05T15:03:06.050Z,35.67
2019-04-05T15:05:37.986Z,35.56
2019-04-05T15:08:09.562Z,35.51
2019-04-05T15:10:41.280Z,35.43
2019-04-05T15:13:13.234Z,35.43
2019-04-05T15:15:45.795Z,35.42
2019-04-05T15:18:19.530Z,35.42
2019-04-05T15:20:50.648Z,35.37
2019-04-05T15:23:22.410Z,35.19
2019-04-05T15:25:55.124Z,35.26
2019-04-05T15:28:27.094Z,35.41
2019-04-05T15:30:59.043Z,35.35
2019-04-05T15:33:30.759Z,35.35
2019-04-05T15:36:05.415Z,35.34
2019-04-05T15:38:37.079Z,35.35
2019-04-05T15:41:08.589Z,35.42
2019-04-05T15:43:40.154Z,35.32
2019-04-05T15:46:11.517Z,35.37
2019-04-05T15:48:43.112Z,35.37
2019-04-05T15:51:14.941Z,35.27
2019-04-05T15:53:46.333Z,35.27
2019-04-05T15:56:18.594Z,35.42
2019-04-05T15:58:52.293Z,35.42
2019-04-05T16:01:23.481Z,35.65
2019-04-05T16:03:55.143Z,35.71
2019-04-05T16:06:26.947Z,35.71
2019-04-05T16:08:58.614Z,35.68
2019-04-05T16:11:30.224Z,35.68
2019-04-05T16:14:02.809Z,35.48
2019-04-05T16:16:34.501Z,35.48
2019-04-05T16:19:06.498Z,35.60
2019-04-05T16:21:37.995Z,35.64
2019-04-05T16:24:09.561Z,35.52
2019-04-05T16:26:41.231Z,35.44
2019-04-05T16:29:12.938Z,35.46
2019-04-05T16:31:44.579Z,35.40
2019-04-05T16:34:16.119Z,35.46
2019-04-05T16:36:48.338Z,35.46
2019-04-05T16:39:22.357Z,35.46
2019-04-05T16:41:54.510Z,35.45
2019-04-05T16:44:26.401Z,35.45
2019-04-05T16:46:58.003Z,35.45
2019-04-05T16:49:30.178Z,35.32
2019-04-05T16:52:02.047Z,35.21
2019-04-05T16:54:33.866Z,35.16
2019-04-05T16:57:05.797Z,35.24
2019-04-05T16:59:37.616Z,35.18
2019-04-05T17:02:09.156Z,34.98
2019-04-05T17:04:42.236Z,34.91
2019-04-05T17:07:13.892Z,35.13
2019-04-05T17:09:46.509Z,35.13
2019-04-05T17:12:18.609Z,35.16
2019-04-05T17:14:49.915Z,35.04
2019-04-05T17:17:21.849Z,35.04
2019-04-05T17:19:53.830Z,35.05
2019-04-05T17:22:25.722Z,34.98
2019-04-05T17:24:57.199Z,35.11
2019-04-05T17:27:29.912Z,35.04
2019-04-05T17:30:01.649Z,35.04
2019-04-05T17:32:33.795Z,34.95
2019-04-05T17:35:05.873Z,34.80
2019-04-05T17:37:38.192Z,34.87
2019-04-05T17:40:11.403Z,34.87
2019-04-05T17:42:43.075Z,34.63
2019-04-05T17:45:14.936Z,34.67
2019-04-05T17:47:46.574Z,34.54
2019-04-05T17:50:31.685Z,34.54
2019-04-05T17:53:12.162Z,34.65
2019-04-05T17:55:37.522Z,34.68
2019-04-05T17:58:09.474Z,34.59
2019-04-05T18:00:41.238Z,34.62
2019-04-05T18:03:12.976Z,34.70
2019-04-05T18:05:44.756Z,34.77
2019-04-05T18:08:16.547Z,34.84
2019-04-05T18:10:48.166Z,34.70
2019-04-05T18:13:20.087Z,34.70
2019-04-05T18:15:52.941Z,34.57
2019-04-05T18:18:24.937Z,34.59
2019-04-05T18:20:56.451Z,34.53
2019-04-05T18:23:28.146Z,34.51
2019-04-05T18:25:59.940Z,34.37
2019-04-05T18:28:31.780Z,34.33
2019-04-05T18:31:03.309Z,34.40
2019-04-05T18:35:58.073Z,34.22
2019-04-05T18:38:29.564Z,34.22
2019-04-05T18:41:01.267Z,34.23
2019-04-05T18:43:32.937Z,34.24
2019-04-05T18:46:04.613Z,34.25
2019-04-05T18:48:39.020Z,34.21
2019-04-05T18:51:10.484Z,34.14
2019-04-05T18:53:42.433Z,34.07
2019-04-05T18:56:14.266Z,33.44
2019-04-05T18:58:48.946Z,33.44
2019-04-05T19:01:20.837Z,33.43
2019-04-05T19:03:52.449Z,33.43
2019-04-05T19:06:24.052Z,33.43
2019-04-05T19:08:55.771Z,33.35
2019-04-05T19:11:27.562Z,33.28
2019-04-05T19:14:01.232Z,33.14
2019-04-05T19:16:32.774Z,33.14
2019-04-05T19:19:04.480Z,33.10
2019-04-05T19:21:36.138Z,33.13
2019-04-05T19:24:10.657Z,32.95
2019-04-05T19:26:43.056Z,32.76
2019-04-05T19:29:14.672Z,32.65
2019-04-05T19:49:41.085Z,32.28
2019-04-05T19:52:12.714Z,32.17
2019-04-05T19:54:44.466Z,32.26
2019-04-05T19:57:16.115Z,32.38
2019-04-05T19:59:48.046Z,32.19
2019-04-05T20:02:19.750Z,32.19
2019-04-05T20:04:51.619Z,32.18
2019-04-05T20:07:23.063Z,32.08
2019-04-05T20:09:54.850Z,32.08
2019-04-05T20:12:26.549Z,32.02
2019-04-05T20:14:58.317Z,32.06
2019-04-05T20:17:29.658Z,32.46
2019-04-05T20:20:01.348Z,32.48
2019-04-05T20:22:32.920Z,32.48
2019-04-05T20:25:04.799Z,32.25
2019-04-05T20:27:36.632Z,32.25
2019-04-05T20:30:08.709Z,32.25
2019-04-05T20:32:40.394Z,32.53
2019-04-05T20:35:12.535Z,32.45
2019-04-05T20:37:44.341Z,32.23
2019-04-05T20:40:16.031Z,32.23
2019-04-05T20:42:47.611Z,32.21
2019-04-05T20:45:19.298Z,32.21
2019-04-05T20:47:50.766Z,32.30
2019-04-05T20:50:22.354Z,32.24
2019-04-05T20:52:53.758Z,32.35
2019-04-05T20:55:25.475Z,32.35
2019-04-05T20:57:56.823Z,32.23
2019-04-05T21:00:28.796Z,32.27
2019-04-05T21:03:00.198Z,32.33
2019-04-05T21:05:32.324Z,32.25
2019-04-05T21:08:03.712Z,32.27
2019-04-05T21:10:35.139Z,32.27
2019-04-05T21:13:07.750Z,32.39
2019-04-05T21:15:39.539Z,32.39
2019-04-05T21:18:11.119Z,32.35
2019-04-05T21:20:42.516Z,32.35
2019-04-05T21:23:14.128Z,32.28
2019-04-05T21:25:45.894Z,32.06
2019-04-05T21:28:17.682Z,32.06
2019-04-05T21:30:49.038Z,31.87
2019-04-05T21:33:20.734Z,32.08
2019-04-05T21:35:52.339Z,31.97
2019-04-05T21:38:23.939Z,32.13
2019-04-05T21:40:56.749Z,31.96
2019-04-05T21:43:28.413Z,31.75
2019-04-05T21:45:59.989Z,31.71
2019-04-05T21:48:31.570Z,31.71
2019-04-05T21:51:03.054Z,31.88
2019-04-05T21:53:34.831Z,31.82
2019-04-05T21:56:06.447Z,31.92
2019-04-05T21:58:38.069Z,31.85
2019-04-05T22:01:09.940Z,31.85
2019-04-05T22:03:43.458Z,32.03
2019-04-05T22:06:15.267Z,32.06
2019-04-05T22:08:47.202Z,31.96
2019-04-05T22:11:19.265Z,31.96
2019-04-05T22:13:51.188Z,31.90
2019-04-05T22:16:22.752Z,31.98
2019-04-05T22:18:54.430Z,31.83
2019-04-05T22:21:26.006Z,31.69
2019-04-05T22:23:58.143Z,31.46
2019-04-05T22:26:29.863Z,31.46
2019-04-05T22:29:01.561Z,31.60
2019-04-05T22:31:33.169Z,31.50
2019-04-05T22:34:05.080Z,31.58
2019-04-05T22:36:36.374Z,31.50
2019-04-05T22:39:09.274Z,31.50
2019-04-05T22:41:41.172Z,31.46
2019-04-05T22:44:13.385Z,31.45
2019-04-05T22:46:45.196Z,31.30
2019-04-05T22:49:16.771Z,31.38
2019-04-05T22:51:48.365Z,31.40
2019-04-05T22:54:20.000Z,31.28
2019-04-05T22:56:51.843Z,31.37
2019-04-05T22:59:23.418Z,31.36
2019-04-05T23:01:55.030Z,31.37
2019-04-05T23:04:26.634Z,31.38
2019-04-05T23:06:58.777Z,31.38
2019-04-05T23:09:30.383Z,31.19
2019-04-05T23:12:02.293Z,31.08
2019-04-05T23:14:33.863Z,31.08
2019-04-05T23:17:05.590Z,31.07
2019-04-05T23:19:37.482Z,31.17
2019-04-05T23:22:09.130Z,30.79
2019-04-05T23:24:40.684Z,30.98
2019-04-05T23:27:12.375Z,31.09
2019-04-05T23:29:43.800Z,31.11
2019-04-05T23:32:15.607Z,31.10
2019-04-05T23:34:47.214Z,31.10
2019-04-05T23:37:19.314Z,30.98
2019-04-05T23:39:50.754Z,31.07
2019-04-05T23:42:22.266Z,31.07
2019-04-05T23:44:53.779Z,30.99
2019-04-05T23:47:25.421Z,31.04
2019-04-05T23:49:57.216Z,30.94
2019-04-05T23:52:28.723Z,30.91
2019-04-05T23:55:00.141Z,30.96
2019-04-05T23:57:31.846Z,31.07
